sensor_id;sensor_type;location;lat;lon;timestamp;P1;durP1;ratioP1;P2;durP2;ratioP2
12171;SDS011;6149;52.418;13.668;2022-07-06T00:02:11;4.13;;;1.20;;
12171;SDS011;6149;52.418;13.668;2022-07-06T00:04:37;2.47;;;1.13;;
12171;SDS011;6149;52.418;13.668;2022-07-06T00:07:05;2.50;;;1.10;;
12171;SDS011;6149;52.418;13.668;2022-07-06T00:09:32;2.60;;;1.30;;
12171;SDS011;6149;52.418;13.668;2022-07-06T00:11:58;3.00;;;1.10;;
12171;SDS011;6149;52.418;13.668;2022-07-06T00:14:25;2.03;;;1.03;;
12171;SDS011;6149;52.418;13.668;2022-07-06T00:16:52;1.57;;;1.13;;
12171;SDS011;6149;52.418;13.668;2022-07-06T00:19:18;5.40;;;1.27;;
12171;SDS011;6149;52.418;13.668;2022-07-06T00:21:45;3.57;;;1.10;;
12171;SDS011;6149;52.418;13.668;2022-07-06T00:24:13;2.40;;;1.03;;
12171;SDS011;6149;52.418;13.668;2022-07-06T00:26:39;3.57;;;1.17;;
12171;SDS011;6149;52.418;13.668;2022-07-06T00:29:06;4.07;;;1.20;;
12171;SDS011;6149;52.418;13.668;2022-07-06T00:31:32;2.43;;;1.17;;
12171;SDS011;6149;52.418;13.668;2022-07-06T00:33:59;1.53;;;1.10;;
12171;SDS011;6149;52.418;13.668;2022-07-06T00:36:25;1.83;;;1.10;;
12171;SDS011;6149;52.418;13.668;2022-07-06T00:38:52;3.13;;;1.20;;
12171;SDS011;6149;52.418;13.668;2022-07-06T00:41:20;1.10;;;1.00;;
12171;SDS011;6149;52.418;13.668;2022-07-06T00:43:50;2.23;;;1.00;;
12171;SDS011;6149;52.418;13.668;2022-07-06T00:46:20;1.90;;;1.00;;
12171;SDS011;6149;52.418;13.668;2022-07-06T00:48:53;2.43;;;1.00;;
12171;SDS011;6149;52.418;13.668;2022-07-06T00:51:20;3.13;;;1.00;;
12171;SDS011;6149;52.418;13.668;2022-07-06T00:53:51;1.10;;;1.00;;
12171;SDS011;6149;52.418;13.668;2022-07-06T00:56:21;3.70;;;1.13;;
12171;SDS011;6149;52.418;13.668;2022-07-06T00:58:47;2.60;;;1.30;;
12171;SDS011;6149;52.418;13.668;2022-07-06T01:01:14;2.57;;;0.90;;
12171;SDS011;6149;52.418;13.668;2022-07-06T01:03:41;2.20;;;1.10;;
12171;SDS011;6149;52.418;13.668;2022-07-06T01:06:07;3.57;;;1.13;;
12171;SDS011;6149;52.418;13.668;2022-07-06T01:08:34;8.50;;;1.43;;
12171;SDS011;6149;52.418;13.668;2022-07-06T01:11:00;2.40;;;1.23;;
12171;SDS011;6149;52.418;13.668;2022-07-06T01:13:28;2.10;;;1.10;;
12171;SDS011;6149;52.418;13.668;2022-07-06T01:15:58;2.40;;;1.07;;
12171;SDS011;6149;52.418;13.668;2022-07-06T01:18:25;1.97;;;1.33;;
12171;SDS011;6149;52.418;13.668;2022-07-06T01:21:05;1.93;;;1.00;;
12171;SDS011;6149;52.418;13.668;2022-07-06T01:23:38;1.47;;;1.07;;
12171;SDS011;6149;52.418;13.668;2022-07-06T01:26:08;1.73;;;1.10;;
12171;SDS011;6149;52.418;13.668;2022-07-06T01:28:37;3.73;;;1.00;;
12171;SDS011;6149;52.418;13.668;2022-07-06T01:31:03;3.10;;;1.50;;
12171;SDS011;6149;52.418;13.668;2022-07-06T01:33:30;4.70;;;1.80;;
12171;SDS011;6149;52.418;13.668;2022-07-06T01:35:57;2.53;;;1.20;;
12171;SDS011;6149;52.418;13.668;2022-07-06T01:38:25;2.37;;;1.10;;
12171;SDS011;6149;52.418;13.668;2022-07-06T01:40:52;2.50;;;1.10;;
12171;SDS011;6149;52.418;13.668;2022-07-06T01:43:19;3.20;;;1.17;;
12171;SDS011;6149;52.418;13.668;2022-07-06T01:45:45;3.40;;;1.37;;
12171;SDS011;6149;52.418;13.668;2022-07-06T01:48:12;3.03;;;1.47;;
12171;SDS011;6149;52.418;13.668;2022-07-06T01:50:38;2.30;;;1.20;;
12171;SDS011;6149;52.418;13.668;2022-07-06T01:53:05;4.03;;;1.37;;
12171;SDS011;6149;52.418;13.668;2022-07-06T01:55:32;2.80;;;1.27;;
12171;SDS011;6149;52.418;13.668;2022-07-06T01:57:59;2.43;;;1.10;;
12171;SDS011;6149;52.418;13.668;2022-07-06T02:00:25;2.30;;;1.40;;
12171;SDS011;6149;52.418;13.668;2022-07-06T02:02:52;2.07;;;1.20;;
12171;SDS011;6149;52.418;13.668;2022-07-06T02:05:19;1.53;;;1.30;;
12171;SDS011;6149;52.418;13.668;2022-07-06T02:07:45;2.57;;;1.40;;
12171;SDS011;6149;52.418;13.668;2022-07-06T02:10:12;2.70;;;1.10;;
12171;SDS011;6149;52.418;13.668;2022-07-06T02:12:40;2.40;;;1.00;;
12171;SDS011;6149;52.418;13.668;2022-07-06T02:15:07;3.63;;;1.40;;
12171;SDS011;6149;52.418;13.668;2022-07-06T02:17:34;2.73;;;1.20;;
12171;SDS011;6149;52.418;13.668;2022-07-06T02:20:01;2.30;;;1.10;;
12171;SDS011;6149;52.418;13.668;2022-07-06T02:22:30;4.20;;;1.27;;
12171;SDS011;6149;52.418;13.668;2022-07-06T02:24:56;2.03;;;1.00;;
12171;SDS011;6149;52.418;13.668;2022-07-06T02:27:23;1.97;;;1.10;;
12171;SDS011;6149;52.418;13.668;2022-07-06T02:29:51;1.90;;;1.20;;
12171;SDS011;6149;52.418;13.668;2022-07-06T02:32:17;3.73;;;1.40;;
12171;SDS011;6149;52.418;13.668;2022-07-06T02:34:44;2.27;;;1.17;;
12171;SDS011;6149;52.418;13.668;2022-07-06T02:37:11;3.63;;;1.20;;
12171;SDS011;6149;52.418;13.668;2022-07-06T02:39:37;4.30;;;1.10;;
12171;SDS011;6149;52.418;13.668;2022-07-06T02:42:04;2.93;;;1.30;;
12171;SDS011;6149;52.418;13.668;2022-07-06T02:44:31;3.27;;;1.30;;
12171;SDS011;6149;52.418;13.668;2022-07-06T02:46:59;3.77;;;1.30;;
12171;SDS011;6149;52.418;13.668;2022-07-06T02:49:25;3.33;;;1.50;;
12171;SDS011;6149;52.418;13.668;2022-07-06T02:51:52;2.20;;;1.40;;
12171;SDS011;6149;52.418;13.668;2022-07-06T02:54:18;5.13;;;1.70;;
12171;SDS011;6149;52.418;13.668;2022-07-06T02:56:45;4.80;;;1.50;;
12171;SDS011;6149;52.418;13.668;2022-07-06T02:59:16;3.63;;;1.57;;
12171;SDS011;6149;52.418;13.668;2022-07-06T03:01:42;3.93;;;1.53;;
12171;SDS011;6149;52.418;13.668;2022-07-06T03:04:10;3.50;;;1.50;;
12171;SDS011;6149;52.418;13.668;2022-07-06T03:06:37;4.37;;;1.80;;
12171;SDS011;6149;52.418;13.668;2022-07-06T03:09:04;5.60;;;1.67;;
12171;SDS011;6149;52.418;13.668;2022-07-06T03:11:30;2.60;;;1.83;;
12171;SDS011;6149;52.418;13.668;2022-07-06T03:14:00;3.50;;;1.50;;
12171;SDS011;6149;52.418;13.668;2022-07-06T03:16:27;5.93;;;1.70;;
12171;SDS011;6149;52.418;13.668;2022-07-06T03:18:54;2.77;;;1.50;;
12171;SDS011;6149;52.418;13.668;2022-07-06T03:21:22;4.70;;;1.40;;
12171;SDS011;6149;52.418;13.668;2022-07-06T03:23:49;2.73;;;1.83;;
12171;SDS011;6149;52.418;13.668;2022-07-06T03:26:15;2.87;;;1.57;;
12171;SDS011;6149;52.418;13.668;2022-07-06T03:28:42;5.30;;;1.67;;
12171;SDS011;6149;52.418;13.668;2022-07-06T03:31:08;5.60;;;1.70;;
12171;SDS011;6149;52.418;13.668;2022-07-06T03:33:35;2.20;;;1.90;;
12171;SDS011;6149;52.418;13.668;2022-07-06T03:36:01;2.83;;;1.67;;
12171;SDS011;6149;52.418;13.668;2022-07-06T03:38:31;5.07;;;2.40;;
12171;SDS011;6149;52.418;13.668;2022-07-06T03:40:57;2.57;;;1.80;;
12171;SDS011;6149;52.418;13.668;2022-07-06T03:43:24;4.37;;;1.70;;
12171;SDS011;6149;52.418;13.668;2022-07-06T03:45:50;3.33;;;1.70;;
12171;SDS011;6149;52.418;13.668;2022-07-06T03:48:17;4.47;;;1.90;;
12171;SDS011;6149;52.418;13.668;2022-07-06T03:50:44;6.33;;;2.03;;
12171;SDS011;6149;52.418;13.668;2022-07-06T03:53:10;5.13;;;1.67;;
12171;SDS011;6149;52.418;13.668;2022-07-06T03:55:38;4.33;;;2.20;;
12171;SDS011;6149;52.418;13.668;2022-07-06T03:58:05;4.27;;;2.23;;
12171;SDS011;6149;52.418;13.668;2022-07-06T04:00:32;4.10;;;2.33;;
12171;SDS011;6149;52.418;13.668;2022-07-06T04:02:59;4.33;;;2.63;;
12171;SDS011;6149;52.418;13.668;2022-07-06T04:05:26;7.63;;;2.57;;
12171;SDS011;6149;52.418;13.668;2022-07-06T04:07:52;4.03;;;2.53;;
12171;SDS011;6149;52.418;13.668;2022-07-06T04:10:19;4.47;;;2.37;;
12171;SDS011;6149;52.418;13.668;2022-07-06T04:12:47;6.17;;;2.63;;
12171;SDS011;6149;52.418;13.668;2022-07-06T04:15:13;3.33;;;2.33;;
12171;SDS011;6149;52.418;13.668;2022-07-06T04:17:40;5.90;;;2.60;;
12171;SDS011;6149;52.418;13.668;2022-07-06T04:20:18;3.80;;;2.73;;
12171;SDS011;6149;52.418;13.668;2022-07-06T04:22:46;6.17;;;3.13;;
12171;SDS011;6149;52.418;13.668;2022-07-06T04:25:13;3.70;;;2.47;;
12171;SDS011;6149;52.418;13.668;2022-07-06T04:27:39;6.03;;;2.57;;
12171;SDS011;6149;52.418;13.668;2022-07-06T04:30:09;3.07;;;2.57;;
12171;SDS011;6149;52.418;13.668;2022-07-06T04:32:36;3.33;;;2.47;;
12171;SDS011;6149;52.418;13.668;2022-07-06T04:35:04;6.17;;;3.27;;
12171;SDS011;6149;52.418;13.668;2022-07-06T04:37:32;3.97;;;2.63;;
12171;SDS011;6149;52.418;13.668;2022-07-06T04:39:58;5.00;;;3.00;;
12171;SDS011;6149;52.418;13.668;2022-07-06T04:42:25;3.63;;;2.70;;
12171;SDS011;6149;52.418;13.668;2022-07-06T04:44:51;5.73;;;3.03;;
12171;SDS011;6149;52.418;13.668;2022-07-06T04:47:19;4.97;;;2.40;;
12171;SDS011;6149;52.418;13.668;2022-07-06T04:49:46;5.17;;;2.57;;
12171;SDS011;6149;52.418;13.668;2022-07-06T04:52:12;4.67;;;3.00;;
12171;SDS011;6149;52.418;13.668;2022-07-06T04:54:39;3.93;;;2.83;;
12171;SDS011;6149;52.418;13.668;2022-07-06T04:57:06;4.80;;;2.40;;
12171;SDS011;6149;52.418;13.668;2022-07-06T04:59:32;3.70;;;2.37;;
12171;SDS011;6149;52.418;13.668;2022-07-06T05:01:59;4.53;;;2.60;;
12171;SDS011;6149;52.418;13.668;2022-07-06T05:04:26;5.93;;;2.67;;
12171;SDS011;6149;52.418;13.668;2022-07-06T05:06:53;2.77;;;2.17;;
12171;SDS011;6149;52.418;13.668;2022-07-06T05:09:20;4.77;;;2.67;;
12171;SDS011;6149;52.418;13.668;2022-07-06T05:11:46;5.93;;;2.90;;
12171;SDS011;6149;52.418;13.668;2022-07-06T05:14:13;4.67;;;2.60;;
12171;SDS011;6149;52.418;13.668;2022-07-06T05:16:39;4.37;;;2.30;;
12171;SDS011;6149;52.418;13.668;2022-07-06T05:19:06;3.43;;;1.97;;
12171;SDS011;6149;52.418;13.668;2022-07-06T05:21:33;3.67;;;1.77;;
12171;SDS011;6149;52.418;13.668;2022-07-06T05:24:00;5.47;;;1.97;;
12171;SDS011;6149;52.418;13.668;2022-07-06T05:26:27;4.20;;;2.13;;
12171;SDS011;6149;52.418;13.668;2022-07-06T05:28:53;6.13;;;2.10;;
12171;SDS011;6149;52.418;13.668;2022-07-06T05:31:20;2.43;;;1.80;;
12171;SDS011;6149;52.418;13.668;2022-07-06T05:33:46;3.60;;;1.60;;
12171;SDS011;6149;52.418;13.668;2022-07-06T05:36:13;7.20;;;1.83;;
12171;SDS011;6149;52.418;13.668;2022-07-06T05:38:41;6.23;;;1.50;;
12171;SDS011;6149;52.418;13.668;2022-07-06T05:41:08;4.10;;;1.60;;
12171;SDS011;6149;52.418;13.668;2022-07-06T05:43:34;4.33;;;2.00;;
12171;SDS011;6149;52.418;13.668;2022-07-06T05:46:02;2.97;;;1.33;;
12171;SDS011;6149;52.418;13.668;2022-07-06T05:48:28;3.67;;;1.50;;
12171;SDS011;6149;52.418;13.668;2022-07-06T05:51:12;4.77;;;1.47;;
12171;SDS011;6149;52.418;13.668;2022-07-06T05:53:39;3.67;;;1.67;;
12171;SDS011;6149;52.418;13.668;2022-07-06T05:56:07;4.30;;;1.57;;
12171;SDS011;6149;52.418;13.668;2022-07-06T05:58:34;5.30;;;1.70;;
12171;SDS011;6149;52.418;13.668;2022-07-06T06:01:00;3.37;;;1.50;;
12171;SDS011;6149;52.418;13.668;2022-07-06T06:03:27;3.27;;;1.47;;
12171;SDS011;6149;52.418;13.668;2022-07-06T06:05:53;3.97;;;1.53;;
12171;SDS011;6149;52.418;13.668;2022-07-06T06:08:20;9.40;;;1.83;;
12171;SDS011;6149;52.418;13.668;2022-07-06T06:10:46;2.50;;;1.30;;
12171;SDS011;6149;52.418;13.668;2022-07-06T06:13:14;6.67;;;2.00;;
12171;SDS011;6149;52.418;13.668;2022-07-06T06:15:41;4.17;;;1.67;;
12171;SDS011;6149;52.418;13.668;2022-07-06T06:18:07;4.07;;;1.30;;
12171;SDS011;6149;52.418;13.668;2022-07-06T06:20:34;4.93;;;1.40;;
12171;SDS011;6149;52.418;13.668;2022-07-06T06:23:01;3.60;;;1.33;;
12171;SDS011;6149;52.418;13.668;2022-07-06T06:25:30;2.60;;;1.33;;
12171;SDS011;6149;52.418;13.668;2022-07-06T06:27:58;6.23;;;1.40;;
12171;SDS011;6149;52.418;13.668;2022-07-06T06:30:27;4.13;;;1.20;;
12171;SDS011;6149;52.418;13.668;2022-07-06T06:33:04;2.73;;;1.20;;
12171;SDS011;6149;52.418;13.668;2022-07-06T06:35:32;3.53;;;1.50;;
12171;SDS011;6149;52.418;13.668;2022-07-06T06:37:59;3.57;;;1.33;;
12171;SDS011;6149;52.418;13.668;2022-07-06T06:40:26;3.50;;;1.30;;
12171;SDS011;6149;52.418;13.668;2022-07-06T06:42:52;3.07;;;1.30;;
12171;SDS011;6149;52.418;13.668;2022-07-06T06:45:19;2.90;;;1.30;;
12171;SDS011;6149;52.418;13.668;2022-07-06T06:47:48;3.77;;;1.30;;
12171;SDS011;6149;52.418;13.668;2022-07-06T06:50:14;3.67;;;1.30;;
12171;SDS011;6149;52.418;13.668;2022-07-06T06:52:41;3.57;;;1.27;;
12171;SDS011;6149;52.418;13.668;2022-07-06T06:55:08;4.33;;;1.50;;
12171;SDS011;6149;52.418;13.668;2022-07-06T06:57:35;3.13;;;1.40;;
12171;SDS011;6149;52.418;13.668;2022-07-06T07:00:02;3.23;;;1.43;;
12171;SDS011;6149;52.418;13.668;2022-07-06T07:02:32;3.50;;;1.33;;
12171;SDS011;6149;52.418;13.668;2022-07-06T07:05:00;4.20;;;1.40;;
12171;SDS011;6149;52.418;13.668;2022-07-06T07:07:27;5.03;;;1.33;;
12171;SDS011;6149;52.418;13.668;2022-07-06T07:09:54;1.67;;;1.17;;
12171;SDS011;6149;52.418;13.668;2022-07-06T07:12:20;5.23;;;1.17;;
12171;SDS011;6149;52.418;13.668;2022-07-06T07:14:47;4.03;;;1.30;;
12171;SDS011;6149;52.418;13.668;2022-07-06T07:17:14;5.97;;;1.30;;
12171;SDS011;6149;52.418;13.668;2022-07-06T07:19:41;2.33;;;1.07;;
12171;SDS011;6149;52.418;13.668;2022-07-06T07:22:10;4.43;;;1.50;;
12171;SDS011;6149;52.418;13.668;2022-07-06T07:24:36;4.30;;;1.40;;
12171;SDS011;6149;52.418;13.668;2022-07-06T07:27:03;3.20;;;1.20;;
12171;SDS011;6149;52.418;13.668;2022-07-06T07:29:30;2.83;;;1.20;;
12171;SDS011;6149;52.418;13.668;2022-07-06T07:31:57;4.13;;;1.17;;
12171;SDS011;6149;52.418;13.668;2022-07-06T07:34:23;2.63;;;1.07;;
12171;SDS011;6149;52.418;13.668;2022-07-06T07:36:50;5.47;;;1.40;;
12171;SDS011;6149;52.418;13.668;2022-07-06T07:39:18;5.00;;;1.40;;
12171;SDS011;6149;52.418;13.668;2022-07-06T07:41:44;3.10;;;1.40;;
12171;SDS011;6149;52.418;13.668;2022-07-06T07:44:11;3.63;;;1.37;;
12171;SDS011;6149;52.418;13.668;2022-07-06T07:46:38;4.87;;;1.37;;
12171;SDS011;6149;52.418;13.668;2022-07-06T07:49:04;4.57;;;1.40;;
12171;SDS011;6149;52.418;13.668;2022-07-06T07:51:31;4.33;;;1.30;;
12171;SDS011;6149;52.418;13.668;2022-07-06T07:53:57;4.40;;;1.50;;
12171;SDS011;6149;52.418;13.668;2022-07-06T07:56:25;2.53;;;1.20;;
12171;SDS011;6149;52.418;13.668;2022-07-06T07:58:52;2.47;;;1.30;;
12171;SDS011;6149;52.418;13.668;2022-07-06T08:01:18;3.37;;;1.40;;
12171;SDS011;6149;52.418;13.668;2022-07-06T08:03:45;3.33;;;1.67;;
12171;SDS011;6149;52.418;13.668;2022-07-06T08:06:11;6.20;;;1.37;;
12171;SDS011;6149;52.418;13.668;2022-07-06T08:08:38;5.13;;;1.77;;
12171;SDS011;6149;52.418;13.668;2022-07-06T08:11:04;3.37;;;1.50;;
12171;SDS011;6149;52.418;13.668;2022-07-06T08:13:33;3.03;;;1.20;;
12171;SDS011;6149;52.418;13.668;2022-07-06T08:16:01;2.90;;;1.30;;
12171;SDS011;6149;52.418;13.668;2022-07-06T08:18:28;3.67;;;1.43;;
12171;SDS011;6149;52.418;13.668;2022-07-06T08:20:55;2.23;;;1.23;;
12171;SDS011;6149;52.418;13.668;2022-07-06T08:23:21;8.37;;;1.53;;
12171;SDS011;6149;52.418;13.668;2022-07-06T08:25:48;4.43;;;1.40;;
12171;SDS011;6149;52.418;13.668;2022-07-06T08:28:15;4.00;;;1.57;;
12171;SDS011;6149;52.418;13.668;2022-07-06T08:30:43;4.50;;;1.13;;
12171;SDS011;6149;52.418;13.668;2022-07-06T08:33:09;3.23;;;1.63;;
12171;SDS011;6149;52.418;13.668;2022-07-06T08:35:36;6.87;;;1.40;;
12171;SDS011;6149;52.418;13.668;2022-07-06T08:38:03;2.40;;;1.60;;
12171;SDS011;6149;52.418;13.668;2022-07-06T08:40:31;4.03;;;1.20;;
12171;SDS011;6149;52.418;13.668;2022-07-06T08:43:00;2.57;;;1.40;;
12171;SDS011;6149;52.418;13.668;2022-07-06T08:45:27;2.63;;;1.10;;
12171;SDS011;6149;52.418;13.668;2022-07-06T08:47:57;3.83;;;1.30;;
12171;SDS011;6149;52.418;13.668;2022-07-06T08:50:29;2.00;;;1.00;;
12171;SDS011;6149;52.418;13.668;2022-07-06T08:52:57;1.93;;;0.90;;
12171;SDS011;6149;52.418;13.668;2022-07-06T08:55:24;1.93;;;0.90;;
12171;SDS011;6149;52.418;13.668;2022-07-06T08:57:52;2.77;;;1.00;;
12171;SDS011;6149;52.418;13.668;2022-07-06T09:00:22;2.43;;;0.90;;
12171;SDS011;6149;52.418;13.668;2022-07-06T09:02:50;3.17;;;1.13;;
12171;SDS011;6149;52.418;13.668;2022-07-06T09:05:23;3.63;;;1.10;;
12171;SDS011;6149;52.418;13.668;2022-07-06T09:07:50;3.17;;;0.90;;
12171;SDS011;6149;52.418;13.668;2022-07-06T09:10:19;1.43;;;0.90;;
12171;SDS011;6149;52.418;13.668;2022-07-06T09:12:48;3.27;;;1.03;;
12171;SDS011;6149;52.418;13.668;2022-07-06T09:15:15;2.30;;;1.00;;
12171;SDS011;6149;52.418;13.668;2022-07-06T09:17:42;5.17;;;0.90;;
12171;SDS011;6149;52.418;13.668;2022-07-06T09:20:09;3.17;;;0.93;;
12171;SDS011;6149;52.418;13.668;2022-07-06T09:22:40;2.20;;;0.80;;
12171;SDS011;6149;52.418;13.668;2022-07-06T09:25:08;3.83;;;1.00;;
12171;SDS011;6149;52.418;13.668;2022-07-06T09:27:37;3.03;;;1.00;;
12171;SDS011;6149;52.418;13.668;2022-07-06T09:30:06;2.03;;;0.90;;
12171;SDS011;6149;52.418;13.668;2022-07-06T09:32:40;3.03;;;0.90;;
12171;SDS011;6149;52.418;13.668;2022-07-06T09:35:16;3.37;;;0.80;;
12171;SDS011;6149;52.418;13.668;2022-07-06T09:37:48;1.73;;;1.17;;
12171;SDS011;6149;52.418;13.668;2022-07-06T09:40:26;2.17;;;0.87;;
12171;SDS011;6149;52.418;13.668;2022-07-06T09:43:06;2.67;;;0.90;;
12171;SDS011;6149;52.418;13.668;2022-07-06T09:45:35;1.93;;;0.70;;
12171;SDS011;6149;52.418;13.668;2022-07-06T09:48:06;2.73;;;0.90;;
12171;SDS011;6149;52.418;13.668;2022-07-06T09:50:38;1.57;;;0.90;;
12171;SDS011;6149;52.418;13.668;2022-07-06T09:53:07;2.60;;;0.80;;
12171;SDS011;6149;52.418;13.668;2022-07-06T09:55:34;4.33;;;0.93;;
12171;SDS011;6149;52.418;13.668;2022-07-06T09:58:01;4.37;;;0.90;;
12171;SDS011;6149;52.418;13.668;2022-07-06T10:00:28;1.87;;;0.60;;
12171;SDS011;6149;52.418;13.668;2022-07-06T10:02:55;0.60;;;0.50;;
12171;SDS011;6149;52.418;13.668;2022-07-06T10:05:22;2.07;;;0.60;;
12171;SDS011;6149;52.418;13.668;2022-07-06T10:07:52;3.33;;;0.67;;
12171;SDS011;6149;52.418;13.668;2022-07-06T10:10:26;0.93;;;0.70;;
12171;SDS011;6149;52.418;13.668;2022-07-06T10:12:54;3.37;;;1.10;;
12171;SDS011;6149;52.418;13.668;2022-07-06T10:15:22;2.93;;;1.00;;
12171;SDS011;6149;52.418;13.668;2022-07-06T10:17:52;2.97;;;0.93;;
12171;SDS011;6149;52.418;13.668;2022-07-06T10:20:19;1.83;;;0.97;;
12171;SDS011;6149;52.418;13.668;2022-07-06T10:22:47;4.37;;;0.83;;
12171;SDS011;6149;52.418;13.668;2022-07-06T10:25:15;3.90;;;1.00;;
12171;SDS011;6149;52.418;13.668;2022-07-06T10:27:45;2.40;;;0.70;;
12171;SDS011;6149;52.418;13.668;2022-07-06T10:30:13;2.13;;;0.80;;
12171;SDS011;6149;52.418;13.668;2022-07-06T10:32:42;1.87;;;1.00;;
12171;SDS011;6149;52.418;13.668;2022-07-06T10:35:13;2.57;;;1.00;;
12171;SDS011;6149;52.418;13.668;2022-07-06T10:37:40;1.40;;;0.83;;
12171;SDS011;6149;52.418;13.668;2022-07-06T10:40:08;1.90;;;0.70;;
12171;SDS011;6149;52.418;13.668;2022-07-06T10:42:57;3.13;;;0.90;;
12171;SDS011;6149;52.418;13.668;2022-07-06T10:48:17;1.03;;;0.73;;
12171;SDS011;6149;52.418;13.668;2022-07-06T10:50:46;0.90;;;0.50;;
12171;SDS011;6149;52.418;13.668;2022-07-06T10:53:16;3.13;;;0.70;;
12171;SDS011;6149;52.418;13.668;2022-07-06T10:55:44;2.63;;;0.57;;
12171;SDS011;6149;52.418;13.668;2022-07-06T10:58:14;2.67;;;0.90;;
12171;SDS011;6149;52.418;13.668;2022-07-06T11:00:50;2.60;;;0.80;;
12171;SDS011;6149;52.418;13.668;2022-07-06T11:03:29;3.37;;;0.70;;
12171;SDS011;6149;52.418;13.668;2022-07-06T11:05:57;2.83;;;0.50;;
12171;SDS011;6149;52.418;13.668;2022-07-06T11:11:17;2.37;;;0.80;;
12171;SDS011;6149;52.418;13.668;2022-07-06T11:13:51;2.60;;;0.80;;
12171;SDS011;6149;52.418;13.668;2022-07-06T11:16:24;3.70;;;0.60;;
12171;SDS011;6149;52.418;13.668;2022-07-06T11:19:03;3.40;;;0.80;;
12171;SDS011;6149;52.418;13.668;2022-07-06T11:21:40;2.50;;;0.80;;
12171;SDS011;6149;52.418;13.668;2022-07-06T11:24:12;3.90;;;1.10;;
12171;SDS011;6149;52.418;13.668;2022-07-06T11:26:42;4.80;;;0.90;;
12171;SDS011;6149;52.418;13.668;2022-07-06T11:29:13;2.37;;;0.80;;
12171;SDS011;6149;52.418;13.668;2022-07-06T11:31:43;1.93;;;0.67;;
12171;SDS011;6149;52.418;13.668;2022-07-06T11:34:13;2.37;;;0.93;;
12171;SDS011;6149;52.418;13.668;2022-07-06T11:36:44;2.47;;;0.60;;
12171;SDS011;6149;52.418;13.668;2022-07-06T11:39:12;3.13;;;0.80;;
12171;SDS011;6149;52.418;13.668;2022-07-06T11:41:39;1.80;;;0.77;;
12171;SDS011;6149;52.418;13.668;2022-07-06T11:44:06;2.50;;;0.80;;
12171;SDS011;6149;52.418;13.668;2022-07-06T11:46:35;2.00;;;0.60;;
12171;SDS011;6149;52.418;13.668;2022-07-06T11:49:03;2.83;;;0.80;;
12171;SDS011;6149;52.418;13.668;2022-07-06T11:51:32;1.33;;;0.57;;
12171;SDS011;6149;52.418;13.668;2022-07-06T11:54:00;0.83;;;0.80;;
12171;SDS011;6149;52.418;13.668;2022-07-06T11:56:33;1.53;;;0.83;;
12171;SDS011;6149;52.418;13.668;2022-07-06T11:59:01;2.07;;;0.67;;
12171;SDS011;6149;52.418;13.668;2022-07-06T12:01:28;3.20;;;0.80;;
12171;SDS011;6149;52.418;13.668;2022-07-06T12:03:58;2.57;;;1.10;;
12171;SDS011;6149;52.418;13.668;2022-07-06T12:06:31;4.10;;;1.20;;
12171;SDS011;6149;52.418;13.668;2022-07-06T12:08:59;2.93;;;0.90;;
12171;SDS011;6149;52.418;13.668;2022-07-06T12:11:30;3.10;;;0.93;;
12171;SDS011;6149;52.418;13.668;2022-07-06T12:14:00;4.10;;;0.77;;
12171;SDS011;6149;52.418;13.668;2022-07-06T12:16:29;3.10;;;0.90;;
12171;SDS011;6149;52.418;13.668;2022-07-06T12:19:00;1.13;;;0.63;;
12171;SDS011;6149;52.418;13.668;2022-07-06T12:21:28;2.10;;;0.90;;
12171;SDS011;6149;52.418;13.668;2022-07-06T12:23:56;4.47;;;0.90;;
12171;SDS011;6149;52.418;13.668;2022-07-06T12:26:24;2.63;;;0.83;;
12171;SDS011;6149;52.418;13.668;2022-07-06T12:29:01;1.77;;;0.80;;
12171;SDS011;6149;52.418;13.668;2022-07-06T12:31:30;2.40;;;0.90;;
12171;SDS011;6149;52.418;13.668;2022-07-06T12:33:59;2.80;;;1.10;;
12171;SDS011;6149;52.418;13.668;2022-07-06T12:36:27;2.73;;;0.90;;
12171;SDS011;6149;52.418;13.668;2022-07-06T12:38:56;2.27;;;0.63;;
12171;SDS011;6149;52.418;13.668;2022-07-06T12:41:27;2.57;;;1.07;;
12171;SDS011;6149;52.418;13.668;2022-07-06T12:44:00;4.63;;;0.87;;
12171;SDS011;6149;52.418;13.668;2022-07-06T12:46:31;2.83;;;0.90;;
12171;SDS011;6149;52.418;13.668;2022-07-06T12:49:02;2.27;;;0.90;;
12171;SDS011;6149;52.418;13.668;2022-07-06T12:51:50;2.13;;;0.90;;
12171;SDS011;6149;52.418;13.668;2022-07-06T12:54:19;1.50;;;0.50;;
12171;SDS011;6149;52.418;13.668;2022-07-06T12:56:56;1.60;;;0.70;;
12171;SDS011;6149;52.418;13.668;2022-07-06T12:59:37;3.23;;;0.97;;
12171;SDS011;6149;52.418;13.668;2022-07-06T13:02:07;2.60;;;0.90;;
12171;SDS011;6149;52.418;13.668;2022-07-06T13:04:36;1.73;;;0.60;;
12171;SDS011;6149;52.418;13.668;2022-07-06T13:07:04;1.73;;;0.70;;
12171;SDS011;6149;52.418;13.668;2022-07-06T13:09:31;2.50;;;0.60;;
12171;SDS011;6149;52.418;13.668;2022-07-06T13:11:58;2.53;;;0.70;;
12171;SDS011;6149;52.418;13.668;2022-07-06T13:14:24;2.10;;;0.73;;
12171;SDS011;6149;52.418;13.668;2022-07-06T13:16:51;1.63;;;0.53;;
12171;SDS011;6149;52.418;13.668;2022-07-06T13:19:18;4.40;;;0.90;;
12171;SDS011;6149;52.418;13.668;2022-07-06T13:21:46;1.33;;;0.70;;
12171;SDS011;6149;52.418;13.668;2022-07-06T13:24:13;3.70;;;1.10;;
12171;SDS011;6149;52.418;13.668;2022-07-06T13:26:40;2.90;;;0.90;;
12171;SDS011;6149;52.418;13.668;2022-07-06T13:29:06;3.03;;;0.90;;
12171;SDS011;6149;52.418;13.668;2022-07-06T13:31:35;4.63;;;1.00;;
12171;SDS011;6149;52.418;13.668;2022-07-06T13:34:03;3.37;;;1.00;;
12171;SDS011;6149;52.418;13.668;2022-07-06T13:36:30;3.20;;;1.20;;
12171;SDS011;6149;52.418;13.668;2022-07-06T13:38:58;3.23;;;1.10;;
12171;SDS011;6149;52.418;13.668;2022-07-06T13:41:24;3.00;;;0.90;;
12171;SDS011;6149;52.418;13.668;2022-07-06T13:43:51;2.90;;;1.20;;
12171;SDS011;6149;52.418;13.668;2022-07-06T13:46:18;3.20;;;1.10;;
12171;SDS011;6149;52.418;13.668;2022-07-06T13:48:46;2.40;;;1.13;;
12171;SDS011;6149;52.418;13.668;2022-07-06T13:51:13;2.00;;;1.10;;
12171;SDS011;6149;52.418;13.668;2022-07-06T13:53:39;5.87;;;1.27;;
12171;SDS011;6149;52.418;13.668;2022-07-06T13:56:07;2.07;;;1.13;;
12171;SDS011;6149;52.418;13.668;2022-07-06T13:58:34;3.03;;;1.30;;
12171;SDS011;6149;52.418;13.668;2022-07-06T14:01:01;3.40;;;1.33;;
12171;SDS011;6149;52.418;13.668;2022-07-06T14:03:29;2.90;;;1.80;;
12171;SDS011;6149;52.418;13.668;2022-07-06T14:05:56;3.73;;;2.47;;
12171;SDS011;6149;52.418;13.668;2022-07-06T14:08:24;3.17;;;2.63;;
12171;SDS011;6149;52.418;13.668;2022-07-06T14:10:52;5.23;;;2.80;;
12171;SDS011;6149;52.418;13.668;2022-07-06T14:13:21;3.30;;;2.93;;
12171;SDS011;6149;52.418;13.668;2022-07-06T14:15:48;5.10;;;3.17;;
12171;SDS011;6149;52.418;13.668;2022-07-06T14:18:15;3.53;;;2.50;;
12171;SDS011;6149;52.418;13.668;2022-07-06T14:20:43;5.67;;;2.27;;
12171;SDS011;6149;52.418;13.668;2022-07-06T14:23:10;3.83;;;1.60;;
12171;SDS011;6149;52.418;13.668;2022-07-06T14:25:37;1.60;;;1.40;;
12171;SDS011;6149;52.418;13.668;2022-07-06T14:28:05;3.97;;;0.97;;
12171;SDS011;6149;52.418;13.668;2022-07-06T14:30:33;3.17;;;1.30;;
12171;SDS011;6149;52.418;13.668;2022-07-06T14:33:01;3.80;;;2.40;;
12171;SDS011;6149;52.418;13.668;2022-07-06T14:35:32;5.13;;;2.10;;
12171;SDS011;6149;52.418;13.668;2022-07-06T14:37:59;2.87;;;1.80;;
12171;SDS011;6149;52.418;13.668;2022-07-06T14:40:27;2.73;;;1.50;;
12171;SDS011;6149;52.418;13.668;2022-07-06T14:42:53;2.07;;;1.37;;
12171;SDS011;6149;52.418;13.668;2022-07-06T14:45:20;3.27;;;1.80;;
12171;SDS011;6149;52.418;13.668;2022-07-06T14:47:51;5.67;;;1.70;;
12171;SDS011;6149;52.418;13.668;2022-07-06T14:50:17;4.43;;;1.40;;
12171;SDS011;6149;52.418;13.668;2022-07-06T14:52:44;2.67;;;1.30;;
12171;SDS011;6149;52.418;13.668;2022-07-06T14:55:11;2.60;;;0.90;;
12171;SDS011;6149;52.418;13.668;2022-07-06T14:57:39;3.60;;;1.10;;
12171;SDS011;6149;52.418;13.668;2022-07-06T15:00:06;2.60;;;1.20;;